sensor_id;sensor_type;location;lat;lon;timestamp;pressure;altitude;pressure_sealevel;temperature;humidity
74573;BME280;73017;50.810;4.428;2024-01-15T00:01:09;99991.63;;;20.16;37.45
74573;BME280;73017;50.810;4.428;2024-01-15T00:03:34;99968.75;;;20.01;38.03
74573;BME280;73017;50.810;4.428;2024-01-15T00:06:00;99982.91;;;20.16;37.57
74573;BME280;73017;50.810;4.428;2024-01-15T00:08:25;99990.50;;;20.17;37.80
74573;BME280;73017;50.810;4.428;2024-01-15T00:10:51;99970.28;;;20.02;37.84
74573;BME280;73017;50.810;4.428;2024-01-15T00:13:16;99986.72;;;20.18;37.44
74573;BME280;73017;50.810;4.428;2024-01-15T00:15:42;99984.81;;;20.19;37.75
74573;BME280;73017;50.810;4.428;2024-01-15T00:18:07;99954.72;;;20.00;37.87
74573;BME280;73017;50.810;4.428;2024-01-15T00:20:33;99956.28;;;20.05;37.34
74573;BME280;73017;50.810;4.428;2024-01-15T00:22:58;99975.38;;;20.21;37.58
74573;BME280;73017;50.810;4.428;2024-01-15T00:25:24;99975.38;;;20.21;37.90
74573;BME280;73017;50.810;4.428;2024-01-15T00:27:49;99962.78;;;20.11;37.63
74573;BME280;73017;50.810;4.428;2024-01-15T00:30:15;99960.16;;;20.15;37.52
74573;BME280;73017;50.810;4.428;2024-01-15T00:32:40;99938.44;;;20.02;37.89
74573;BME280;73017;50.810;4.428;2024-01-15T00:35:06;99946.91;;;20.18;38.02
74573;BME280;73017;50.810;4.428;2024-01-15T00:37:31;99967.03;;;20.23;37.73
74573;BME280;73017;50.810;4.428;2024-01-15T00:39:57;99964.78;;;20.21;37.97
74573;BME280;73017;50.810;4.428;2024-01-15T00:42:22;99955.28;;;20.20;38.06
74573;BME280;73017;50.810;4.428;2024-01-15T00:44:48;99959.81;;;20.20;38.33
74573;BME280;73017;50.810;4.428;2024-01-15T00:47:13;99922.94;;;20.04;38.30
74573;BME280;73017;50.810;4.428;2024-01-15T00:49:39;99948.06;;;20.17;37.93
74573;BME280;73017;50.810;4.428;2024-01-15T00:52:05;99949.53;;;20.15;38.30
74573;BME280;73017;50.810;4.428;2024-01-15T00:54:30;99926.66;;;19.96;37.82
74573;BME280;73017;50.810;4.428;2024-01-15T00:56:56;99925.88;;;19.92;37.87
74573;BME280;73017;50.810;4.428;2024-01-15T00:59:21;99961.25;;;20.10;37.84
74573;BME280;73017;50.810;4.428;2024-01-15T01:01:47;99950.22;;;20.05;37.94
74573;BME280;73017;50.810;4.428;2024-01-15T01:04:12;99937.22;;;19.92;37.74
74573;BME280;73017;50.810;4.428;2024-01-15T01:06:38;99934.94;;;19.91;38.02
74573;BME280;73017;50.810;4.428;2024-01-15T01:09:03;99947.91;;;19.99;38.21
74573;BME280;73017;50.810;4.428;2024-01-15T01:11:30;99952.44;;;19.99;37.99
74573;BME280;73017;50.810;4.428;2024-01-15T01:13:56;99950.94;;;19.98;37.95
74573;BME280;73017;50.810;4.428;2024-01-15T01:16:22;99950.19;;;20.01;37.23
74573;BME280;73017;50.810;4.428;2024-01-15T01:18:47;99957.75;;;19.99;38.23
74573;BME280;73017;50.810;4.428;2024-01-15T01:21:13;99932.63;;;19.86;37.80
74573;BME280;73017;50.810;4.428;2024-01-15T01:23:38;99930.31;;;19.80;37.58
74573;BME280;73017;50.810;4.428;2024-01-15T01:26:03;99932.59;;;19.82;37.14
74573;BME280;73017;50.810;4.428;2024-01-15T01:28:29;99956.22;;;19.98;37.89
74573;BME280;73017;50.810;4.428;2024-01-15T01:30:54;99954.72;;;20.00;38.07
74573;BME280;73017;50.810;4.428;2024-01-15T01:33:20;99940.22;;;19.87;37.99
74573;BME280;73017;50.810;4.428;2024-01-15T01:35:45;99954.38;;;20.02;37.36
74573;BME280;73017;50.810;4.428;2024-01-15T01:38:12;99946.72;;;19.97;38.04
74573;BME280;73017;50.810;4.428;2024-01-15T01:40:38;99946.78;;;20.00;38.03
74573;BME280;73017;50.810;4.428;2024-01-15T01:43:05;99936.00;;;19.83;37.58
74573;BME280;73017;50.810;4.428;2024-01-15T01:45:30;99932.28;;;19.91;37.35
74573;BME280;73017;50.810;4.428;2024-01-15T01:47:56;99922.44;;;19.88;37.43
74573;BME280;73017;50.810;4.428;2024-01-15T01:50:22;99935.03;;;20.01;37.64
74573;BME280;73017;50.810;4.428;2024-01-15T01:52:48;99955.47;;;20.01;37.50
74573;BME280;73017;50.810;4.428;2024-01-15T01:55:14;99937.31;;;19.99;38.25
74573;BME280;73017;50.810;4.428;2024-01-15T01:57:40;99947.13;;;19.99;37.45
74573;BME280;73017;50.810;4.428;2024-01-15T02:00:07;99925.78;;;19.85;37.62
74573;BME280;73017;50.810;4.428;2024-01-15T02:02:33;99938.78;;;19.97;37.49
74573;BME280;73017;50.810;4.428;2024-01-15T02:04:59;99914.00;;;19.78;37.69
74573;BME280;73017;50.810;4.428;2024-01-15T02:07:25;99920.84;;;19.79;37.32
74573;BME280;73017;50.810;4.428;2024-01-15T02:09:50;99933.47;;;19.93;37.48
74573;BME280;73017;50.810;4.428;2024-01-15T02:12:16;99936.88;;;19.94;37.98
74573;BME280;73017;50.810;4.428;2024-01-15T02:14:42;99903.00;;;19.76;37.69
74573;BME280;73017;50.810;4.428;2024-01-15T02:17:07;99934.97;;;19.94;37.58
74573;BME280;73017;50.810;4.428;2024-01-15T02:19:33;99937.28;;;19.96;37.96
74573;BME280;73017;50.810;4.428;2024-01-15T02:21:58;99909.09;;;19.80;37.73
74573;BME280;73017;50.810;4.428;2024-01-15T02:24:25;99898.88;;;19.83;37.70
74573;BME280;73017;50.810;4.428;2024-01-15T02:26:50;99912.88;;;19.79;37.55
74573;BME280;73017;50.810;4.428;2024-01-15T02:29:17;99899.63;;;19.79;38.25
74573;BME280;73017;50.810;4.428;2024-01-15T02:31:43;99938.78;;;19.97;37.72
74573;BME280;73017;50.810;4.428;2024-01-15T02:34:08;99906.03;;;19.78;37.59
74573;BME280;73017;50.810;4.428;2024-01-15T02:36:34;99898.47;;;19.77;37.46
74573;BME280;73017;50.810;4.428;2024-01-15T02:38:59;99911.75;;;19.80;37.87
74573;BME280;73017;50.810;4.428;2024-01-15T02:41:24;99928.91;;;19.94;37.76
74573;BME280;73017;50.810;4.428;2024-01-15T02:43:50;99930.81;;;19.93;37.04
74573;BME280;73017;50.810;4.428;2024-01-15T02:46:15;99927.75;;;19.91;37.42
74573;BME280;73017;50.810;4.428;2024-01-15T02:48:41;99920.16;;;19.90;37.46
74573;BME280;73017;50.810;4.428;2024-01-15T02:51:07;99894.31;;;19.79;37.52
74573;BME280;73017;50.810;4.428;2024-01-15T02:53:32;99917.94;;;19.95;37.74
74573;BME280;73017;50.810;4.428;2024-01-15T02:55:58;99892.81;;;19.82;37.64
74573;BME280;73017;50.810;4.428;2024-01-15T02:58:23;99892.09;;;19.85;37.98
74573;BME280;73017;50.810;4.428;2024-01-15T03:00:49;99886.03;;;19.85;37.61
74573;BME280;73017;50.810;4.428;2024-01-15T03:03:14;99915.34;;;20.02;37.64
74573;BME280;73017;50.810;4.428;2024-01-15T03:05:39;99894.06;;;19.95;38.04
74573;BME280;73017;50.810;4.428;2024-01-15T03:08:05;99908.53;;;20.05;37.62
74573;BME280;73017;50.810;4.428;2024-01-15T03:10:30;99914.63;;;20.09;38.06
74573;BME280;73017;50.810;4.428;2024-01-15T03:12:57;99891.09;;;20.04;37.70
74573;BME280;73017;50.810;4.428;2024-01-15T03:15:22;99882.69;;;19.95;37.75
74573;BME280;73017;50.810;4.428;2024-01-15T03:17:48;99874.72;;;19.95;37.91
74573;BME280;73017;50.810;4.428;2024-01-15T03:20:13;99901.00;;;20.11;37.66
74573;BME280;73017;50.810;4.428;2024-01-15T03:22:39;99887.31;;;20.05;37.79
74573;BME280;73017;50.810;4.428;2024-01-15T03:25:04;99892.66;;;20.09;37.45
74573;BME280;73017;50.810;4.428;2024-01-15T03:27:30;99861.81;;;19.90;37.50
74573;BME280;73017;50.810;4.428;2024-01-15T03:29:55;99865.63;;;19.92;38.31
74573;BME280;73017;50.810;4.428;2024-01-15T03:32:21;99888.47;;;20.11;37.87
74573;BME280;73017;50.810;4.428;2024-01-15T03:34:46;99879.75;;;20.04;37.80
74573;BME280;73017;50.810;4.428;2024-01-15T03:37:13;99859.97;;;19.94;37.73
74573;BME280;73017;50.810;4.428;2024-01-15T03:39:38;99839.47;;;19.87;37.46
74573;BME280;73017;50.810;4.428;2024-01-15T03:42:04;99882.06;;;20.12;38.21
74573;BME280;73017;50.810;4.428;2024-01-15T03:44:29;99867.91;;;19.94;37.56
74573;BME280;73017;50.810;4.428;2024-01-15T03:46:55;99895.72;;;20.14;37.92
74573;BME280;73017;50.810;4.428;2024-01-15T03:49:20;99881.69;;;20.14;37.96
74573;BME280;73017;50.810;4.428;2024-01-15T03:51:46;99896.88;;;20.13;37.96
74573;BME280;73017;50.810;4.428;2024-01-15T03:54:11;99869.47;;;19.98;37.71
74573;BME280;73017;50.810;4.428;2024-01-15T03:56:37;99879.78;;;20.11;37.67
74573;BME280;73017;50.810;4.428;2024-01-15T03:59:02;99858.09;;;19.98;37.80
74573;BME280;73017;50.810;4.428;2024-01-15T04:01:28;99885.09;;;20.14;37.65
74573;BME280;73017;50.810;4.428;2024-01-15T04:03:55;99878.28;;;20.17;37.58
74573;BME280;73017;50.810;4.428;2024-01-15T04:06:20;99888.94;;;20.20;37.71
74573;BME280;73017;50.810;4.428;2024-01-15T04:08:45;99881.34;;;20.19;37.52
74573;BME280;73017;50.810;4.428;2024-01-15T04:11:11;99869.97;;;20.18;38.35
74573;BME280;73017;50.810;4.428;2024-01-15T04:13:36;99836.50;;;19.99;38.15
74573;BME280;73017;50.810;4.428;2024-01-15T04:16:02;99857.84;;;20.17;38.23
74573;BME280;73017;50.810;4.428;2024-01-15T04:18:28;99856.31;;;20.16;37.87
74573;BME280;73017;50.810;4.428;2024-01-15T04:20:54;99857.06;;;20.17;38.38
74573;BME280;73017;50.810;4.428;2024-01-15T04:23:19;99848.75;;;20.18;38.18
74573;BME280;73017;50.810;4.428;2024-01-15T04:25:45;99854.44;;;20.20;38.21
74573;BME280;73017;50.810;4.428;2024-01-15T04:28:11;99845.69;;;20.16;38.29
74573;BME280;73017;50.810;4.428;2024-01-15T04:30:37;99828.94;;;20.05;37.87
74573;BME280;73017;50.810;4.428;2024-01-15T04:33:03;99857.09;;;20.20;37.72
74573;BME280;73017;50.810;4.428;2024-01-15T04:35:29;99862.75;;;20.19;37.92
74573;BME280;73017;50.810;4.428;2024-01-15T04:37:55;99841.84;;;20.07;38.04
74573;BME280;73017;50.810;4.428;2024-01-15T04:40:21;99852.16;;;20.19;37.86
74573;BME280;73017;50.810;4.428;2024-01-15T04:42:46;99828.16;;;20.01;38.02
74573;BME280;73017;50.810;4.428;2024-01-15T04:45:12;99848.38;;;20.20;38.13
74573;BME280;73017;50.810;4.428;2024-01-15T04:47:37;99815.69;;;20.01;37.84
74573;BME280;73017;50.810;4.428;2024-01-15T04:50:04;99839.66;;;20.19;37.63
74573;BME280;73017;50.810;4.428;2024-01-15T04:52:29;99843.44;;;20.18;37.68
74573;BME280;73017;50.810;4.428;2024-01-15T04:54:55;99839.28;;;20.17;37.85
74573;BME280;73017;50.810;4.428;2024-01-15T04:57:20;99838.13;;;20.18;37.76
74573;BME280;73017;50.810;4.428;2024-01-15T04:59:46;99816.06;;;20.04;37.91
74573;BME280;73017;50.810;4.428;2024-01-15T05:02:11;99816.81;;;20.04;37.87
74573;BME280;73017;50.810;4.428;2024-01-15T05:04:37;99839.66;;;20.16;37.80
74573;BME280;73017;50.810;4.428;2024-01-15T05:07:02;99846.84;;;20.19;37.90
74573;BME280;73017;50.810;4.428;2024-01-15T05:09:28;99852.53;;;20.17;37.63
74573;BME280;73017;50.810;4.428;2024-01-15T05:11:56;99851.41;;;20.18;37.97
74573;BME280;73017;50.810;4.428;2024-01-15T05:14:21;99845.34;;;20.18;38.12
74573;BME280;73017;50.810;4.428;2024-01-15T05:16:48;99811.47;;;19.97;37.80
74573;BME280;73017;50.810;4.428;2024-01-15T05:19:13;99838.88;;;20.19;37.70
74573;BME280;73017;50.810;4.428;2024-01-15T05:21:39;99838.09;;;20.15;37.78
74573;BME280;73017;50.810;4.428;2024-01-15T05:24:04;99830.13;;;20.11;37.90
74573;BME280;73017;50.810;4.428;2024-01-15T05:26:30;99836.22;;;20.19;38.08
74573;BME280;73017;50.810;4.428;2024-01-15T05:28:55;99829.06;;;20.19;38.29
74573;BME280;73017;50.810;4.428;2024-01-15T05:31:21;99837.00;;;20.19;37.78
74573;BME280;73017;50.810;4.428;2024-01-15T05:33:46;99822.59;;;20.20;37.86
74573;BME280;73017;50.810;4.428;2024-01-15T05:36:12;99824.50;;;20.20;38.37
74573;BME280;73017;50.810;4.428;2024-01-15T05:38:37;99824.88;;;20.18;37.74
74573;BME280;73017;50.810;4.428;2024-01-15T05:41:03;99802.03;;;19.99;37.95
74573;BME280;73017;50.810;4.428;2024-01-15T05:43:28;99830.19;;;20.18;38.16
74573;BME280;73017;50.810;4.428;2024-01-15T05:45:54;99828.66;;;20.17;37.82
74573;BME280;73017;50.810;4.428;2024-01-15T05:48:19;99829.41;;;20.18;38.21
74573;BME280;73017;50.810;4.428;2024-01-15T05:50:45;99833.22;;;20.20;37.93
74573;BME280;73017;50.810;4.428;2024-01-15T05:53:10;99810.00;;;20.07;38.10
74573;BME280;73017;50.810;4.428;2024-01-15T05:55:36;99828.28;;;20.19;38.26
74573;BME280;73017;50.810;4.428;2024-01-15T05:58:03;99822.25;;;20.22;37.98
74573;BME280;73017;50.810;4.428;2024-01-15T06:00:29;99819.22;;;20.24;37.91
74573;BME280;73017;50.810;4.428;2024-01-15T06:02:54;99819.19;;;20.20;38.07
74573;BME280;73017;50.810;4.428;2024-01-15T06:05:20;99819.56;;;20.18;37.55
74573;BME280;73017;50.810;4.428;2024-01-15T06:07:45;99804.78;;;20.17;37.69
74573;BME280;73017;50.810;4.428;2024-01-15T06:10:11;99805.56;;;20.21;38.38
74573;BME280;73017;50.810;4.428;2024-01-15T06:12:36;99785.75;;;20.05;37.99
74573;BME280;73017;50.810;4.428;2024-01-15T06:15:02;99805.19;;;20.23;38.19
74573;BME280;73017;50.810;4.428;2024-01-15T06:17:27;99808.56;;;20.16;38.23
74573;BME280;73017;50.810;4.428;2024-01-15T06:19:53;99792.94;;;20.04;37.69
74573;BME280;73017;50.810;4.428;2024-01-15T06:22:18;99813.50;;;20.18;37.74
74573;BME280;73017;50.810;4.428;2024-01-15T06:24:44;99815.00;;;20.19;38.00
74573;BME280;73017;50.810;4.428;2024-01-15T06:27:09;99795.63;;;20.08;38.16
74573;BME280;73017;50.810;4.428;2024-01-15T06:29:37;99786.50;;;20.05;38.16
74573;BME280;73017;50.810;4.428;2024-01-15T06:32:04;99805.19;;;20.19;38.22
74573;BME280;73017;50.810;4.428;2024-01-15T06:34:29;99805.91;;;20.16;37.93
74573;BME280;73017;50.810;4.428;2024-01-15T06:36:55;99796.44;;;20.19;37.76
74573;BME280;73017;50.810;4.428;2024-01-15T06:39:20;99781.97;;;20.09;37.98
74573;BME280;73017;50.810;4.428;2024-01-15T06:41:46;99770.22;;;20.07;38.14
74573;BME280;73017;50.810;4.428;2024-01-15T06:44:12;99790.38;;;20.18;37.94
74573;BME280;73017;50.810;4.428;2024-01-15T06:46:44;99789.25;;;20.19;37.64
74573;BME280;73017;50.810;4.428;2024-01-15T06:49:10;99757.31;;;20.01;37.76
74573;BME280;73017;50.810;4.428;2024-01-15T06:51:35;99790.75;;;20.20;37.89
74573;BME280;73017;50.810;4.428;2024-01-15T06:54:01;99783.94;;;20.16;37.77
74573;BME280;73017;50.810;4.428;2024-01-15T06:56:27;99770.59;;;20.05;37.92
74573;BME280;73017;50.810;4.428;2024-01-15T06:58:52;99760.34;;;20.00;37.82
74573;BME280;73017;50.810;4.428;2024-01-15T07:01:18;99775.50;;;20.03;38.23
74573;BME280;73017;50.810;4.428;2024-01-15T07:03:43;99792.28;;;20.18;37.87
74573;BME280;73017;50.810;4.428;2024-01-15T07:06:10;99802.53;;;20.19;38.22
74573;BME280;73017;50.810;4.428;2024-01-15T07:08:36;99794.94;;;20.21;38.12
74573;BME280;73017;50.810;4.428;2024-01-15T07:11:03;99774.38;;;20.04;38.09
74573;BME280;73017;50.810;4.428;2024-01-15T07:13:29;99774.78;;;20.06;38.20
74573;BME280;73017;50.810;4.428;2024-01-15T07:15:54;99777.03;;;20.04;38.09
74573;BME280;73017;50.810;4.428;2024-01-15T07:18:20;99788.03;;;20.06;37.76
74573;BME280;73017;50.810;4.428;2024-01-15T07:20:45;99797.94;;;20.16;38.09
74573;BME280;73017;50.810;4.428;2024-01-15T07:23:11;99774.78;;;20.06;37.94
74573;BME280;73017;50.810;4.428;2024-01-15T07:25:37;99804.41;;;20.23;37.90
74573;BME280;73017;50.810;4.428;2024-01-15T07:28:03;99777.44;;;20.06;37.92
74573;BME280;73017;50.810;4.428;2024-01-15T07:30:29;99797.59;;;20.21;37.93
74573;BME280;73017;50.810;4.428;2024-01-15T07:32:54;99796.81;;;20.21;37.90
74573;BME280;73017;50.810;4.428;2024-01-15T07:35:21;99797.22;;;20.19;37.69
74573;BME280;73017;50.810;4.428;2024-01-15T07:37:46;99801.38;;;20.20;37.81
74573;BME280;73017;50.810;4.428;2024-01-15T07:40:12;99788.44;;;20.08;37.71
74573;BME280;73017;50.810;4.428;2024-01-15T07:42:38;99799.47;;;20.17;37.51
74573;BME280;73017;50.810;4.428;2024-01-15T07:45:04;99788.38;;;20.01;37.53
74573;BME280;73017;50.810;4.428;2024-01-15T07:47:30;99812.00;;;20.20;38.55
74573;BME280;73017;50.810;4.428;2024-01-15T07:49:55;99786.91;;;20.04;37.80
74573;BME280;73017;50.810;4.428;2024-01-15T07:52:21;99815.00;;;20.19;37.79
74573;BME280;73017;50.810;4.428;2024-01-15T07:54:47;99799.03;;;20.08;37.79
74573;BME280;73017;50.810;4.428;2024-01-15T07:57:13;99817.28;;;20.17;37.74
74573;BME280;73017;50.810;4.428;2024-01-15T07:59:38;99786.47;;;19.98;37.69
74573;BME280;73017;50.810;4.428;2024-01-15T08:02:05;99790.69;;;20.06;38.37
74573;BME280;73017;50.810;4.428;2024-01-15T08:04:31;99817.66;;;20.15;37.90
74573;BME280;73017;50.810;4.428;2024-01-15T08:06:56;99830.16;;;20.15;37.32
74573;BME280;73017;50.810;4.428;2024-01-15T08:09:22;99791.03;;;19.97;37.81
74573;BME280;73017;50.810;4.428;2024-01-15T08:11:47;99793.28;;;19.95;37.84
74573;BME280;73017;50.810;4.428;2024-01-15T08:14:14;99803.91;;;19.99;37.73
74573;BME280;73017;50.810;4.428;2024-01-15T08:16:40;99809.97;;;19.96;37.28
74573;BME280;73017;50.810;4.428;2024-01-15T08:19:06;99806.16;;;19.93;37.61
74573;BME280;73017;50.810;4.428;2024-01-15T08:21:32;99835.03;;;20.09;37.25
74573;BME280;73017;50.810;4.428;2024-01-15T08:23:59;99816.00;;;19.96;37.36
74573;BME280;73017;50.810;4.428;2024-01-15T08:26:25;99823.59;;;19.94;36.99
74573;BME280;73017;50.810;4.428;2024-01-15T08:28:50;99852.88;;;20.12;37.16
74573;BME280;73017;50.810;4.428;2024-01-15T08:31:16;99822.84;;;19.97;37.26
74573;BME280;73017;50.810;4.428;2024-01-15T08:33:42;99854.03;;;20.15;37.40
74573;BME280;73017;50.810;4.428;2024-01-15T08:36:07;99827.38;;;19.97;37.23
74573;BME280;73017;50.810;4.428;2024-01-15T08:38:34;99846.03;;;20.11;37.30
74573;BME280;73017;50.810;4.428;2024-01-15T08:41:00;99847.50;;;20.05;36.79
74573;BME280;73017;50.810;4.428;2024-01-15T08:43:26;99867.25;;;20.11;36.77
74573;BME280;73017;50.810;4.428;2024-01-15T08:45:52;99842.91;;;19.95;37.38
74573;BME280;73017;50.810;4.428;2024-01-15T08:48:18;99845.16;;;19.93;36.72
74573;BME280;73017;50.810;4.428;2024-01-15T08:50:44;99849.38;;;19.97;36.76
74573;BME280;73017;50.810;4.428;2024-01-15T08:53:12;99826.59;;;19.93;36.27
74573;BME280;73017;50.810;4.428;2024-01-15T08:55:38;99866.91;;;20.13;36.42
74573;BME280;73017;50.810;4.428;2024-01-15T08:58:04;99863.84;;;20.11;36.23
74573;BME280;73017;50.810;4.428;2024-01-15T09:00:29;99873.38;;;20.15;36.98
74573;BME280;73017;50.810;4.428;2024-01-15T09:02:56;99863.09;;;20.10;36.26
74573;BME280;73017;50.810;4.428;2024-01-15T09:05:21;99869.94;;;20.15;36.72
74573;BME280;73017;50.810;4.428;2024-01-15T09:07:47;99835.34;;;19.97;36.60
74573;BME280;73017;50.810;4.428;2024-01-15T09:10:13;99875.25;;;20.15;36.54
74573;BME280;73017;50.810;4.428;2024-01-15T09:12:38;99870.34;;;20.13;36.70
74573;BME280;73017;50.810;4.428;2024-01-15T09:15:04;99871.09;;;20.14;36.82
74573;BME280;73017;50.810;4.428;2024-01-15T09:17:31;99869.16;;;20.11;35.99
74573;BME280;73017;50.810;4.428;2024-01-15T09:19:57;99846.34;;;19.99;35.88
74573;BME280;73017;50.810;4.428;2024-01-15T09:22:23;99855.50;;;20.09;36.23
74573;BME280;73017;50.810;4.428;2024-01-15T09:24:48;99844.44;;;19.96;35.67
74573;BME280;73017;50.810;4.428;2024-01-15T09:27:14;99862.34;;;20.10;35.91
74573;BME280;73017;50.810;4.428;2024-01-15T09:29:39;99859.31;;;20.08;35.67
74573;BME280;73017;50.810;4.428;2024-01-15T09:32:09;99869.88;;;20.04;35.56
74573;BME280;73017;50.810;4.428;2024-01-15T09:34:34;99877.16;;;20.14;36.62
74573;BME280;73017;50.810;4.428;2024-01-15T09:37:00;99875.63;;;20.13;35.42
74573;BME280;73017;50.810;4.428;2024-01-15T09:39:26;99878.28;;;20.13;35.73
74573;BME280;73017;50.810;4.428;2024-01-15T09:41:53;99874.50;;;20.14;35.98
74573;BME280;73017;50.810;4.428;2024-01-15T09:44:19;99857.72;;;19.99;35.24
74573;BME280;73017;50.810;4.428;2024-01-15T09:46:46;99876.41;;;20.14;35.86
74573;BME280;73017;50.810;4.428;2024-01-15T09:49:12;99879.44;;;20.16;35.44
74573;BME280;73017;50.810;4.428;2024-01-15T09:51:39;99882.47;;;20.18;35.85
74573;BME280;73017;50.810;4.428;2024-01-15T09:54:05;99880.97;;;20.20;35.55
74573;BME280;73017;50.810;4.428;2024-01-15T09:56:31;99880.22;;;20.20;35.73
74573;BME280;73017;50.810;4.428;2024-01-15T09:58:57;99879.06;;;20.17;35.32
74573;BME280;73017;50.810;4.428;2024-01-15T10:01:23;99861.13;;;20.00;35.56
74573;BME280;73017;50.810;4.428;2024-01-15T10:03:50;99891.19;;;20.18;35.48
74573;BME280;73017;50.810;4.428;2024-01-15T10:06:16;99895.00;;;20.21;35.78
74573;BME280;73017;50.810;4.428;2024-01-15T10:08:50;99904.13;;;20.24;35.55
74573;BME280;73017;50.810;4.428;2024-01-15T10:11:16;99896.56;;;20.26;35.96
74573;BME280;73017;50.810;4.428;2024-01-15T10:13:44;99900.72;;;20.27;35.35
74573;BME280;73017;50.810;4.428;2024-01-15T10:16:10;99879.41;;;20.12;35.37
74573;BME280;73017;50.810;4.428;2024-01-15T10:18:36;99877.47;;;20.09;34.60
74573;BME280;73017;50.810;4.428;2024-01-15T10:21:03;99878.63;;;20.08;35.38
74573;BME280;73017;50.810;4.428;2024-01-15T10:23:29;99899.19;;;20.22;34.78
74573;BME280;73017;50.810;4.428;2024-01-15T10:25:57;99904.50;;;20.22;34.82
74573;BME280;73017;50.810;4.428;2024-01-15T10:28:26;99877.09;;;20.07;34.83
74573;BME280;73017;50.810;4.428;2024-01-15T10:30:54;99882.06;;;20.12;35.27
74573;BME280;73017;50.810;4.428;2024-01-15T10:33:22;99907.97;;;20.30;35.32
74573;BME280;73017;50.810;4.428;2024-01-15T10:35:55;99882.06;;;20.12;34.96
74573;BME280;73017;50.810;4.428;2024-01-15T10:38:22;99875.63;;;20.13;35.66
74573;BME280;73017;50.810;4.428;2024-01-15T10:40:51;99911.75;;;20.32;35.08
74573;BME280;73017;50.810;4.428;2024-01-15T10:43:16;99900.75;;;20.30;35.04
74573;BME280;73017;50.810;4.428;2024-01-15T10:45:47;99908.34;;;20.32;35.42
74573;BME280;73017;50.810;4.428;2024-01-15T10:48:13;99905.31;;;20.30;35.68
74573;BME280;73017;50.810;4.428;2024-01-15T10:50:39;99911.38;;;20.30;34.79
74573;BME280;73017;50.810;4.428;2024-01-15T10:53:05;99910.63;;;20.33;35.34
74573;BME280;73017;50.810;4.428;2024-01-15T10:55:35;99927.69;;;20.32;35.09
74573;BME280;73017;50.810;4.428;2024-01-15T10:58:00;99904.06;;;20.16;34.95
74573;BME280;73017;50.810;4.428;2024-01-15T11:00:29;99897.66;;;20.17;35.29
74573;BME280;73017;50.810;4.428;2024-01-15T11:02:55;99927.72;;;20.36;34.84
74573;BME280;73017;50.810;4.428;2024-01-15T11:05:22;99897.69;;;20.25;35.07
74573;BME280;73017;50.810;4.428;2024-01-15T11:07:49;99920.94;;;20.42;35.12
74573;BME280;73017;50.810;4.428;2024-01-15T11:13:15;99919.84;;;20.50;35.07
74573;BME280;73017;50.810;4.428;2024-01-15T11:16:00;99920.63;;;20.54;35.08
74573;BME280;73017;50.810;4.428;2024-01-15T11:18:30;99905.09;;;20.56;35.33
74573;BME280;73017;50.810;4.428;2024-01-15T11:23:50;99920.31;;;20.63;34.83
74573;BME280;73017;50.810;4.428;2024-01-15T11:29:07;99888.72;;;20.47;34.38
74573;BME280;73017;50.810;4.428;2024-01-15T11:34:02;99921.06;;;20.64;34.98
74573;BME280;73017;50.810;4.428;2024-01-15T11:41:57;99888.31;;;20.45;35.04
74573;BME280;73017;50.810;4.428;2024-01-15T11:44:23;99891.00;;;20.49;35.03
74573;BME280;73017;50.810;4.428;2024-01-15T11:47:04;99906.66;;;20.65;35.49
74573;BME280;73017;50.810;4.428;2024-01-15T11:52:19;99912.72;;;20.61;34.45
74573;BME280;73017;50.810;4.428;2024-01-15T11:55:01;99916.16;;;20.62;34.51
74573;BME280;73017;50.810;4.428;2024-01-15T11:57:46;99904.75;;;20.61;34.64
74573;BME280;73017;50.810;4.428;2024-01-15T12:00:13;99918.78;;;20.58;35.17
74573;BME280;73017;50.810;4.428;2024-01-15T12:02:44;99925.97;;;20.58;35.35
74573;BME280;73017;50.810;4.428;2024-01-15T12:05:11;99895.47;;;20.37;35.06
74573;BME280;73017;50.810;4.428;2024-01-15T12:07:48;99896.22;;;20.34;34.58
74573;BME280;73017;50.810;4.428;2024-01-15T12:10:19;99918.31;;;20.53;34.59
74573;BME280;73017;50.810;4.428;2024-01-15T12:15:28;99924.75;;;20.52;34.93
74573;BME280;73017;50.810;4.428;2024-01-15T12:17:59;99914.09;;;20.41;34.69
74573;BME280;73017;50.810;4.428;2024-01-15T12:20:29;99938.81;;;20.56;34.62
74573;BME280;73017;50.810;4.428;2024-01-15T12:22:55;99934.22;;;20.49;34.36
74573;BME280;73017;50.810;4.428;2024-01-15T12:25:21;99922.38;;;20.32;34.87
74573;BME280;73017;50.810;4.428;2024-01-15T12:27:47;99909.09;;;20.32;34.67
74573;BME280;73017;50.810;4.428;2024-01-15T12:30:13;99923.16;;;20.36;33.99
74573;BME280;73017;50.810;4.428;2024-01-15T12:32:42;99946.75;;;20.49;34.07
74573;BME280;73017;50.810;4.428;2024-01-15T12:35:09;99918.22;;;20.35;34.10
74573;BME280;73017;50.810;4.428;2024-01-15T12:37:43;99943.69;;;20.47;34.08
74573;BME280;73017;50.810;4.428;2024-01-15T12:40:10;99921.22;;;20.30;34.90
74573;BME280;73017;50.810;4.428;2024-01-15T12:42:36;99938.38;;;20.43;34.86
74573;BME280;73017;50.810;4.428;2024-01-15T12:45:05;99948.66;;;20.48;34.69
74573;BME280;73017;50.810;4.428;2024-01-15T12:47:31;99941.81;;;20.47;34.53
74573;BME280;73017;50.810;4.428;2024-01-15T12:49:58;99920.44;;;20.26;34.38
74573;BME280;73017;50.810;4.428;2024-01-15T12:52:27;99954.28;;;20.43;34.56
74573;BME280;73017;50.810;4.428;2024-01-15T12:54:52;99956.16;;;20.39;34.70
74573;BME280;73017;50.810;4.428;2024-01-15T12:57:18;99940.88;;;20.21;34.45
74573;BME280;73017;50.810;4.428;2024-01-15T12:59:44;99953.47;;;20.32;34.26
74573;BME280;73017;50.810;4.428;2024-01-15T13:02:14;99936.31;;;20.18;34.44
74573;BME280;73017;50.810;4.428;2024-01-15T13:04:39;99935.19;;;20.19;33.94
74573;BME280;73017;50.810;4.428;2024-01-15T13:07:06;99962.97;;;20.36;34.30
74573;BME280;73017;50.810;4.428;2024-01-15T13:09:33;99967.13;;;20.34;34.59
74573;BME280;73017;50.810;4.428;2024-01-15T13:11:59;99956.50;;;20.30;34.02
74573;BME280;73017;50.810;4.428;2024-01-15T13:14:24;99956.13;;;20.32;34.86
74573;BME280;73017;50.810;4.428;2024-01-15T13:16:50;99927.16;;;20.12;34.37